Time;durP1;ratioP1;P1;durP2;ratioP2;P2;SDS_P1;SDS_P2;PMS_P1;PMS_P2;Temp;Humidity;BMP_temperature;BMP_pressure;BME280_temperature;BME280_humidity;BME280_pressure;Samples;Min_cycle;Max_cycle;Signal;HPM_P1;HPM_P2
2022/09/05 00:01:16;;;;;;;3.15;2.13;;;15.40;99.90;;;;;;4112351;28;20095;-62
2022/09/05 00:03:47;;;;;;;3.08;2.60;;;15.40;99.90;;;;;;4111157;28;20415;-63
2022/09/05 00:05:59;;;;;;;5.22;2.35;;;15.40;99.90;;;;;;4117382;28;20073;-62
2022/09/05 00:08:43;;;;;;;7.45;2.50;;;15.40;99.90;;;;;;4127510;28;20553;-63
2022/09/05 00:10:53;;;;;;;4.72;2.30;;;15.30;99.90;;;;;;4117691;28;20576;-66
2022/09/05 00:13:00;;;;;;;5.18;2.50;;;15.20;99.90;;;;;;4111190;28;20035;-64
2022/09/05 00:15:24;;;;;;;5.22;2.30;;;15.20;99.90;;;;;;4112272;28;20487;-67
2022/09/05 00:17:51;;;;;;;3.42;2.10;;;15.20;99.90;;;;;;4127249;28;20034;-65
2022/09/05 00:20:03;;;;;;;4.75;1.83;;;15.10;99.90;;;;;;4117288;28;20096;-63
2022/09/05 00:22:13;;;;;;;4.25;2.78;;;15.10;99.90;;;;;;4127848;28;20042;-62
2022/09/05 00:24:51;;;;;;;6.13;2.70;;;15.00;99.90;;;;;;4124895;28;20042;-62
2022/09/05 00:27:25;;;;;;;2.85;2.17;;;15.00;99.90;;;;;;4128074;28;20069;-69
2022/09/05 00:29:41;;;;;;;6.53;2.58;;;15.00;99.90;;;;;;4126721;28;20030;-63
2022/09/05 00:32:05;;;;;;;4.28;2.15;;;14.90;99.90;;;;;;4125783;28;20077;-64
2022/09/05 00:34:19;;;;;;;4.72;2.20;;;14.90;99.90;;;;;;4127261;28;20042;-64
2022/09/05 00:36:49;;;;;;;2.33;2.13;;;14.90;99.90;;;;;;4127480;28;20145;-63
2022/09/05 00:39:03;;;;;;;6.68;2.20;;;14.90;99.90;;;;;;4127182;28;20042;-64
2022/09/05 00:41:10;;;;;;;2.15;2.00;;;14.90;99.90;;;;;;4127416;28;20050;-63
2022/09/05 00:43:18;;;;;;;3.20;2.33;;;14.90;99.90;;;;;;4127183;28;20038;-63
2022/09/05 00:45:38;;;;;;;3.88;2.40;;;14.90;99.90;;;;;;4127212;28;20054;-65
2022/09/05 00:47:45;;;;;;;4.10;2.40;;;14.90;99.90;;;;;;4128931;28;20112;-65
2022/09/05 00:49:57;;;;;;;6.97;2.20;;;14.90;99.90;;;;;;4129879;28;20073;-71
2022/09/05 00:52:16;;;;;;;5.60;2.70;;;14.90;99.90;;;;;;4130450;28;20018;-69
2022/09/05 00:54:32;;;;;;;3.80;2.60;;;14.80;99.90;;;;;;4130021;28;20081;-64
2022/09/05 00:56:42;;;;;;;4.93;2.40;;;14.80;99.90;;;;;;4130640;28;20471;-64
2022/09/05 00:59:20;;;;;;;3.17;2.75;;;14.80;99.90;;;;;;4130004;28;20058;-64
2022/09/05 01:01:42;;;;;;;4.53;2.35;;;14.80;99.90;;;;;;4130611;28;20030;-63
2022/09/05 01:03:52;;;;;;;4.28;2.33;;;14.70;99.90;;;;;;4129543;28;20035;-62
2022/09/05 01:06:05;;;;;;;5.10;2.28;;;14.70;99.90;;;;;;4130135;28;20047;-62
2022/09/05 01:08:29;;;;;;;3.53;2.50;;;14.60;99.90;;;;;;4129732;28;20073;-62
2022/09/05 01:10:49;;;;;;;3.08;2.53;;;14.60;99.90;;;;;;4130828;28;20038;-62
2022/09/05 01:13:16;;;;;;;7.35;2.40;;;14.60;99.90;;;;;;4124454;28;20550;-64
2022/09/05 01:15:54;;;;;;;2.95;2.20;;;14.60;99.90;;;;;;4121945;28;20108;-66
2022/09/05 01:18:04;;;;;;;5.13;2.63;;;14.60;99.90;;;;;;4129840;28;20050;-63
2022/09/05 01:20:10;;;;;;;;;;;14.60;99.90;;;;;;4130279;28;20502;-70
2022/09/05 01:22:42;;;;;;;3.85;2.50;;;14.60;99.90;;;;;;4130043;28;19906;-64
2022/09/05 01:25:07;;;;;;;2.58;2.38;;;14.60;99.90;;;;;;4128575;28;20491;-63
2022/09/05 01:27:38;;;;;;;6.45;2.83;;;14.70;99.90;;;;;;4114145;28;20042;-63
2022/09/05 01:29:47;;;;;;;;;;;14.70;99.90;;;;;;4113531;28;20027;-64
2022/09/05 01:32:16;;;;;;;4.97;2.03;;;14.60;99.90;;;;;;4126437;28;19910;-64
2022/09/05 01:34:26;;;;;;;5.50;2.60;;;14.70;99.90;;;;;;4129183;28;20066;-61
2022/09/05 01:36:44;;;;;;;7.43;2.40;;;14.60;99.90;;;;;;4130534;28;20077;-63
2022/09/05 01:39:22;;;;;;;3.83;2.40;;;14.60;99.90;;;;;;4129060;28;20046;-69
2022/09/05 01:41:29;;;;;;;3.53;2.40;;;14.60;99.90;;;;;;4129855;28;20078;-67
2022/09/05 01:43:48;;;;;;;5.05;2.38;;;14.60;99.90;;;;;;4128969;28;20050;-64
2022/09/05 01:46:08;;;;;;;3.40;2.25;;;14.60;99.90;;;;;;4128043;28;20160;-64
2022/09/05 01:48:42;;;;;;;3.53;3.20;;;14.60;99.90;;;;;;4129652;28;20038;-63
2022/09/05 01:51:18;;;;;;;7.80;2.58;;;14.60;99.90;;;;;;4129271;28;20046;-63
2022/09/05 01:53:38;;;;;;;2.80;2.45;;;14.70;99.90;;;;;;4125224;28;20112;-62
2022/09/05 01:55:57;;;;;;;3.38;2.03;;;14.70;99.90;;;;;;4128997;28;20076;-62
2022/09/05 01:58:09;;;;;;;3.20;2.40;;;14.70;99.90;;;;;;4129422;28;20105;-67
2022/09/05 02:00:20;;;;;;;5.55;2.30;;;14.70;99.90;;;;;;4128632;28;20518;-62
2022/09/05 02:02:45;;;;;;;3.97;2.55;;;14.70;99.90;;;;;;4129921;28;20022;-62
2022/09/05 02:05:24;;;;;;;3.03;2.50;;;14.70;99.90;;;;;;4128729;28;20081;-64
2022/09/05 02:07:43;;;;;;;3.47;2.80;;;14.70;99.90;;;;;;4113895;28;20097;-62
2022/09/05 02:10:05;;;;;;;5.07;3.17;;;14.70;99.90;;;;;;4112866;28;20078;-63
2022/09/05 02:12:24;;;;;;;3.05;2.75;;;14.70;99.90;;;;;;4112585;28;20081;-62
2022/09/05 02:15:07;;;;;;;2.97;2.55;;;14.60;99.90;;;;;;4125878;28;20104;-62
2022/09/05 02:17:19;;;;;;;2.42;2.22;;;14.70;99.90;;;;;;4121138;28;20042;-63
2022/09/05 02:19:27;;;;;;;5.88;3.38;;;14.60;99.90;;;;;;4129492;28;20081;-63
2022/09/05 02:21:44;;;;;;;8.55;3.92;;;14.60;99.90;;;;;;4128312;28;20555;-62
2022/09/05 02:24:22;;;;;;;4.70;3.30;;;14.60;99.90;;;;;;4129515;28;20038;-64
2022/09/05 02:26:38;;;;;;;3.20;2.80;;;14.50;99.90;;;;;;4116350;28;20085;-62
2022/09/05 02:29:20;;;;;;;7.20;2.45;;;14.40;99.90;;;;;;4128997;28;20072;-63
2022/09/05 02:31:39;;;;;;;3.65;3.03;;;14.40;99.90;;;;;;4128662;28;20027;-63
2022/09/05 02:34:12;;;;;;;5.40;3.20;;;14.30;99.90;;;;;;4128467;28;20030;-64
2022/09/05 02:36:35;;;;;;;5.47;3.05;;;14.30;99.90;;;;;;4117767;28;20035;-63
2022/09/05 02:38:36;;;;;;;7.25;4.30;;;14.20;99.90;;;;;;4128211;28;20104;-64
2022/09/05 02:41:00;;;;;;;6.88;3.65;;;14.10;99.90;;;;;;4128968;28;20039;-63
2022/09/05 02:43:07;;;;;;;6.35;3.85;;;14.10;99.90;;;;;;4124582;28;20042;-63
2022/09/05 02:45:32;;;;;;;5.90;4.35;;;14.10;99.90;;;;;;4129090;28;20100;-62
2022/09/05 02:47:49;;;;;;;10.55;4.50;;;14.00;99.90;;;;;;4128084;28;20097;-63
2022/09/05 02:50:17;;;;;;;16.00;5.03;;;14.00;99.90;;;;;;4129099;28;20073;-67
2022/09/05 02:52:19;;;;;;;6.10;4.40;;;14.00;99.90;;;;;;4127789;28;20356;-65
2022/09/05 02:54:27;;;;;;;11.18;5.07;;;13.90;99.90;;;;;;4129085;28;20755;-63
2022/09/05 02:56:50;;;;;;;13.52;5.65;;;13.90;99.90;;;;;;4126203;28;20026;-64
2022/09/05 02:59:00;;;;;;;9.83;4.90;;;13.90;99.90;;;;;;4128682;28;20038;-63
2022/09/05 03:01:32;;;;;;;10.45;4.90;;;13.90;99.90;;;;;;4127098;28;20069;-64
2022/09/05 03:03:33;;;;;;;8.85;4.47;;;13.80;99.90;;;;;;4128390;28;20096;-63
2022/09/05 03:05:55;;;;;;;8.95;5.07;;;13.80;99.90;;;;;;4125783;28;20030;-64
2022/09/05 03:08:24;;;;;;;5.70;4.60;;;13.70;99.90;;;;;;4128647;28;20046;-63
2022/09/05 03:11:02;;;;;;;6.93;4.88;;;13.70;99.90;;;;;;4127798;28;20034;-63
2022/09/05 03:13:39;;;;;;;7.15;4.43;;;13.70;99.90;;;;;;4127552;28;20027;-63
2022/09/05 03:16:15;;;;;;;7.00;4.43;;;13.70;99.90;;;;;;4123807;28;20036;-64
2022/09/05 03:18:30;;;;;;;6.25;4.60;;;13.70;99.90;;;;;;4125165;28;20069;-63
2022/09/05 03:20:37;;;;;;;5.35;4.25;;;13.60;99.90;;;;;;4128271;28;20061;-62
2022/09/05 03:23:06;;;;;;;7.43;4.80;;;13.70;99.90;;;;;;4126601;28;20426;-63
2022/09/05 03:25:22;;;;;;;6.35;3.95;;;13.70;99.90;;;;;;4128256;28;20026;-63
2022/09/05 03:27:29;;;;;;;6.63;4.60;;;13.80;99.90;;;;;;4125265;28;20438;-63
2022/09/05 03:30:04;;;;;;;5.47;4.53;;;13.70;99.90;;;;;;4127872;28;20136;-67
2022/09/05 03:32:47;;;;;;;5.85;4.03;;;13.80;99.90;;;;;;4128082;28;20027;-65
2022/09/05 03:35:06;;;;;;;5.63;4.03;;;13.80;99.90;;;;;;4119980;28;20097;-61
2022/09/05 03:37:19;;;;;;;6.20;4.47;;;13.80;99.90;;;;;;4128855;28;20104;-66
2022/09/05 03:39:23;;;;;;;11.73;4.47;;;13.80;99.90;;;;;;4127139;28;20092;-66
2022/09/05 03:41:46;;;;;;;5.85;4.03;;;13.70;99.90;;;;;;4128277;28;20030;-63
2022/09/05 03:44:20;;;;;;;4.13;3.72;;;13.70;99.90;;;;;;4126947;28;20088;-62
2022/09/05 03:46:46;;;;;;;8.55;4.10;;;13.70;99.90;;;;;;4125649;28;20077;-66
2022/09/05 03:49:18;;;;;;;8.10;3.97;;;13.70;99.90;;;;;;4119301;28;20560;-62
2022/09/05 03:51:31;;;;;;;7.30;4.20;;;13.70;99.90;;;;;;4127621;28;20553;-65
2022/09/05 03:54:02;;;;;;;7.90;4.53;;;13.70;99.90;;;;;;4127364;28;20030;-63
2022/09/05 03:56:12;;;;;;;4.68;4.10;;;13.70;99.90;;;;;;4127109;28;20848;-63
2022/09/05 03:58:28;;;;;;;5.22;4.38;;;13.80;99.90;;;;;;4126153;28;20438;-63
2022/09/05 04:00:35;;;;;;;6.50;4.20;;;13.90;99.90;;;;;;4125580;28;20710;-62
2022/09/05 04:02:56;;;;;;;6.65;4.40;;;14.10;99.90;;;;;;4127998;28;20092;-62
2022/09/05 04:05:07;;;;;;;8.57;4.30;;;14.40;99.90;;;;;;4120313;28;20057;-63
2022/09/05 04:07:15;;;;;;;6.68;3.88;;;14.40;99.90;;;;;;4126258;28;20022;-64
2022/09/05 04:09:24;;;;;;;8.07;3.70;;;14.40;99.90;;;;;;4127363;28;20042;-64
2022/09/05 04:11:51;;;;;;;7.18;4.40;;;14.40;99.90;;;;;;4127566;28;20529;-64
2022/09/05 04:14:05;;;;;;;10.93;4.65;;;14.40;99.90;;;;;;4126479;28;20140;-64
2022/09/05 04:16:21;;;;;;;5.75;3.92;;;14.30;99.90;;;;;;4122212;28;20092;-62
2022/09/05 04:18:35;;;;;;;8.38;4.70;;;14.20;99.90;;;;;;4120295;28;20077;-61
2022/09/05 04:20:50;;;;;;;6.32;4.13;;;14.20;99.90;;;;;;4126885;28;20030;-62
2022/09/05 04:23:28;;;;;;;5.57;3.95;;;14.20;99.90;;;;;;4128887;28;20093;-63
2022/09/05 04:25:50;;;;;;;6.10;4.20;;;14.40;99.90;;;;;;4114595;28;20510;-64
2022/09/05 04:28:21;;;;;;;9.02;5.13;;;14.40;99.90;;;;;;4122254;28;20073;-62
2022/09/05 04:30:46;;;;;;;7.00;4.57;;;14.40;99.90;;;;;;4112131;28;20085;-63
2022/09/05 04:33:08;;;;;;;7.93;5.57;;;14.40;99.90;;;;;;4128913;28;20042;-63
2022/09/05 04:35:20;;;;;;;9.20;6.75;;;14.20;99.90;;;;;;4129878;28;20038;-62
2022/09/05 04:37:39;;;;;;;11.52;6.75;;;14.10;99.90;;;;;;4130716;28;20441;-61
2022/09/05 04:39:41;;;;;;;11.48;8.30;;;14.10;99.90;;;;;;4129659;28;20430;-63
2022/09/05 04:41:49;;;;;;;9.90;6.72;;;14.00;99.90;;;;;;4130974;28;20081;-61
2022/09/05 04:43:57;;;;;;;17.65;5.90;;;14.00;99.90;;;;;;4130269;28;20034;-63
2022/09/05 04:46:16;;;;;;;9.88;6.22;;;13.90;99.90;;;;;;4130298;28;20097;-63
2022/09/05 04:48:22;;;;;;;8.07;5.28;;;13.90;99.90;;;;;;4129113;28;20018;-62
2022/09/05 04:50:24;;;;;;;13.55;6.72;;;13.90;99.90;;;;;;4129620;28;20049;-62
2022/09/05 04:52:25;;;;;;;9.35;5.55;;;13.90;99.90;;;;;;4128980;28;20042;-62
2022/09/05 04:54:33;;;;;;;7.43;4.88;;;14.10;99.90;;;;;;4126359;28;20055;-61
2022/09/05 04:56:43;;;;;;;7.90;5.00;;;14.20;99.90;;;;;;4131849;28;20441;-66
2022/09/05 04:59:07;;;;;;;12.00;5.30;;;14.30;99.90;;;;;;4145989;28;20049;-64
2022/09/05 05:01:17;;;;;;;6.30;4.80;;;14.60;99.90;;;;;;4145766;28;20088;-63
2022/09/05 05:03:30;;;;;;;10.18;4.57;;;15.20;99.90;;;;;;4146376;28;20030;-64
2022/09/05 05:05:54;;;;;;;5.78;4.65;;;15.20;99.90;;;;;;4145129;28;20034;-63
2022/09/05 05:08:13;;;;;;;8.27;4.47;;;15.00;99.90;;;;;;4147168;28;20103;-64
2022/09/05 05:10:41;;;;;;;9.48;5.07;;;15.00;99.90;;;;;;4145510;28;20042;-63
2022/09/05 05:13:05;;;;;;;8.27;4.25;;;14.90;99.90;;;;;;4145197;28;20426;-64
2022/09/05 05:15:16;;;;;;;8.27;4.57;;;14.90;99.90;;;;;;4134457;28;20038;-62
2022/09/05 05:17:23;;;;;;;6.15;4.55;;;14.90;99.90;;;;;;4146356;28;20049;-62
2022/09/05 05:19:43;;;;;;;10.63;4.18;;;15.10;99.90;;;;;;4145018;28;20101;-62
2022/09/05 05:21:50;;;;;;;6.13;3.97;;;15.70;99.90;;;;;;4145862;28;20022;-61
2022/09/05 05:23:59;;;;;;;11.02;4.65;;;16.60;99.90;;;;;;4145101;28;20080;-62
2022/09/05 05:26:03;;;;;;;9.38;4.03;;;17.30;99.90;;;;;;4145844;28;20433;-64
2022/09/05 05:28:36;;;;;;;5.93;3.88;;;18.10;99.90;;;;;;4145087;28;20042;-63
2022/09/05 05:30:39;;;;;;;4.70;3.25;;;18.80;99.90;;;;;;4137924;28;20396;-63
2022/09/05 05:32:50;;;;;;;9.82;3.65;;;19.30;99.90;;;;;;4144393;28;20813;-63
2022/09/05 05:34:56;;;;;;;5.95;2.83;;;20.10;99.90;;;;;;4145792;28;20034;-63
2022/09/05 05:37:22;;;;;;;6.40;3.42;;;20.80;99.90;;;;;;4145204;28;20375;-69
2022/09/05 05:39:28;;;;;;;9.15;3.47;;;21.20;99.90;;;;;;4145658;28;20547;-67
2022/09/05 05:41:35;;;;;;;7.55;3.65;;;21.50;99.90;;;;;;4145249;28;20490;-62
2022/09/05 05:43:40;;;;;;;6.55;3.58;;;21.80;99.90;;;;;;4145367;28;20514;-66
2022/09/05 05:45:42;;;;;;;9.48;3.22;;;22.00;99.90;;;;;;4144466;28;20042;-63
2022/09/05 05:47:49;;;;;;;6.93;3.83;;;22.70;99.90;;;;;;4145379;28;20688;-63
2022/09/05 05:50:01;;;;;;;9.88;4.20;;;23.00;99.90;;;;;;4144652;28;20076;-63
2022/09/05 05:52:30;;;;;;;22.85;8.82;;;23.00;99.90;;;;;;4145548;28;20421;-63
2022/09/05 05:54:56;;;;;;;24.77;7.78;;;22.90;99.90;;;;;;4144925;28;20046;-63
2022/09/05 05:57:22;;;;;;;20.13;6.28;;;22.50;99.90;;;;;;4144654;28;20096;-63
2022/09/05 05:59:26;;;;;;;15.93;5.22;;;22.90;99.90;;;;;;4145064;28;20426;-63
2022/09/05 06:01:55;;;;;;;14.98;5.47;;;23.40;99.90;;;;;;4144750;28;20038;-64
2022/09/05 06:04:26;;;;;;;20.33;6.15;;;23.40;99.90;;;;;;4145428;28;20034;-64
2022/09/05 06:06:36;;;;;;;22.15;5.70;;;23.20;99.90;;;;;;4144698;28;20038;-65
2022/09/05 06:09:16;;;;;;;32.85;7.95;;;23.30;99.90;;;;;;4145864;28;20100;-64
2022/09/05 06:11:38;;;;;;;37.90;8.10;;;22.60;99.90;;;;;;4132225;28;20743;-63
2022/09/05 06:14:16;;;;;;;30.42;7.78;;;21.80;99.90;;;;;;4145141;28;20084;-63
2022/09/05 06:16:32;;;;;;;32.35;7.50;;;21.40;99.90;;;;;;4144655;28;20053;-64
2022/09/05 06:18:52;;;;;;;33.47;7.93;;;21.30;99.90;;;;;;4144174;28;20104;-62
2022/09/05 06:21:23;;;;;;;25.83;7.33;;;21.50;99.90;;;;;;4144697;28;20100;-62
2022/09/05 06:23:33;;;;;;;32.15;6.75;;;21.30;99.90;;;;;;4143976;28;20084;-63
2022/09/05 06:25:53;;;;;;;;;;;21.10;99.90;;;;;;4145344;28;20519;-63
2022/09/05 06:28:41;;;;;;;31.15;7.60;;;21.20;99.90;;;;;;4144031;28;19910;-64
2022/09/05 06:31:00;;;;;;;16.63;4.78;;;21.50;99.90;;;;;;4142539;28;20065;-65
2022/09/05 06:33:48;;;;;;;18.38;5.25;;;21.20;99.90;;;;;;4143627;28;20076;-62
2022/09/05 06:35:59;;;;;;;16.83;4.97;;;21.00;99.90;;;;;;4143921;28;20022;-63
2022/09/05 06:38:37;;;;;;;16.83;4.70;;;21.00;99.90;;;;;;4144870;28;20383;-63
2022/09/05 06:40:46;;;;;;;11.10;3.95;;;21.20;99.90;;;;;;4125576;28;20069;-63
2022/09/05 06:43:15;;;;;;;8.77;4.53;;;21.80;99.90;;;;;;4137449;28;20042;-63
2022/09/05 06:45:35;;;;;;;12.80;4.95;;;21.70;99.90;;;;;;4143509;28;20049;-62
2022/09/05 06:47:39;;;;;;;19.23;4.93;;;21.80;99.90;;;;;;4143266;28;20041;-63
2022/09/05 06:49:52;;;;;;;9.15;3.65;;;21.70;99.90;;;;;;4143703;28;20522;-63
2022/09/05 06:52:30;;;;;;;15.00;4.80;;;21.20;99.90;;;;;;4144566;28;20026;-63
2022/09/05 06:54:34;;;;;;;7.28;4.25;;;20.50;99.90;;;;;;4143681;28;20352;-65
2022/09/05 06:57:02;;;;;;;7.53;3.30;;;20.10;99.90;;;;;;4144469;28;20033;-63
2022/09/05 06:59:22;;;;;;;13.25;4.03;;;19.90;99.90;;;;;;4143312;28;20034;-64
2022/09/05 07:01:30;;;;;;;8.70;3.63;;;19.70;99.90;;;;;;4144198;28;20458;-64
2022/09/05 07:03:56;;;;;;;12.05;3.70;;;19.50;99.90;;;;;;4143613;28;20048;-64
2022/09/05 07:06:10;;;;;;;11.50;3.95;;;19.40;99.90;;;;;;4144029;28;20088;-63
2022/09/05 07:08:26;;;;;;;5.72;3.35;;;19.30;99.90;;;;;;4144185;28;20087;-65
2022/09/05 07:10:43;;;;;;;10.90;2.63;;;19.00;99.90;;;;;;4143576;28;20030;-62
2022/09/05 07:12:52;;;;;;;9.00;3.13;;;18.80;99.90;;;;;;4144104;28;20034;-64
2022/09/05 07:15:08;;;;;;;7.15;2.97;;;18.70;99.90;;;;;;4143628;28;20076;-64
2022/09/05 07:17:16;;;;;;;12.98;3.40;;;18.60;99.90;;;;;;4144004;28;20096;-63
2022/09/05 07:19:29;;;;;;;6.47;3.55;;;18.50;99.90;;;;;;4143741;28;20054;-62
2022/09/05 07:21:43;;;;;;;7.32;3.58;;;18.70;99.90;;;;;;4144073;28;20022;-63
2022/09/05 07:23:52;;;;;;;5.88;3.80;;;19.00;99.90;;;;;;4143510;28;20088;-62
2022/09/05 07:25:54;;;;;;;8.32;3.60;;;19.10;99.90;;;;;;4143952;28;20368;-63
2022/09/05 07:28:25;;;;;;;5.32;3.85;;;19.10;99.90;;;;;;4143707;28;20046;-64
2022/09/05 07:30:27;;;;;;;7.38;3.42;;;19.20;99.90;;;;;;4138733;28;20041;-64
2022/09/05 07:32:30;;;;;;;7.10;3.50;;;19.30;99.90;;;;;;4143648;28;20418;-62
2022/09/05 07:34:34;;;;;;;3.10;2.88;;;19.30;99.90;;;;;;4144090;28;20359;-63
2022/09/05 07:36:41;;;;;;;5.72;2.28;;;19.40;99.90;;;;;;4143283;28;20030;-63
2022/09/05 07:38:49;;;;;;;4.78;2.50;;;19.50;99.90;;;;;;4143964;28;20077;-63
2022/09/05 07:41:17;;;;;;;6.82;3.10;;;19.80;99.90;;;;;;4143386;28;20083;-63
2022/09/05 07:43:31;;;;;;;2.75;2.42;;;20.10;99.90;;;;;;4143746;28;20084;-62
2022/09/05 07:45:35;;;;;;;3.63;2.03;;;20.20;99.90;;;;;;4142812;28;20457;-63
2022/09/05 07:47:57;;;;;;;4.80;3.42;;;20.40;99.90;;;;;;4143755;28;20046;-63
2022/09/05 07:50:04;;;;;;;3.22;2.38;;;20.50;99.90;;;;;;4142961;28;20033;-62
2022/09/05 07:52:20;;;;;;;2.30;2.10;;;20.80;99.90;;;;;;4143834;28;20037;-63
2022/09/05 07:54:27;;;;;;;2.50;2.30;;;21.40;99.90;;;;;;4142876;28;20112;-62
2022/09/05 07:56:58;;;;;;;3.25;1.95;;;21.50;99.90;;;;;;4143693;28;20038;-63
2022/09/05 07:59:03;;;;;;;2.88;1.77;;;22.00;99.90;;;;;;4142553;28;20042;-64
2022/09/05 08:01:05;;;;;;;2.20;2.05;;;22.10;99.90;;;;;;4143783;28;20029;-63
2022/09/05 08:03:12;;;;;;;2.40;2.10;;;21.80;99.90;;;;;;4142971;28;20022;-63
2022/09/05 08:05:19;;;;;;;2.95;1.90;;;21.90;99.90;;;;;;4143922;28;20061;-64
2022/09/05 08:07:36;;;;;;;4.03;2.00;;;21.90;99.90;;;;;;4142796;28;20026;-63
2022/09/05 08:09:52;;;;;;;2.28;1.48;;;22.10;99.90;;;;;;4142941;28;20116;-62
2022/09/05 08:11:57;;;;;;;2.22;1.92;;;22.40;99.90;;;;;;4142581;28;20030;-63
2022/09/05 08:14:25;;;;;;;4.05;2.63;;;22.10;99.90;;;;;;4143395;28;20034;-63
2022/09/05 08:16:27;;;;;;;3.22;2.10;;;22.00;99.90;;;;;;4142456;28;20081;-63
2022/09/05 08:18:37;;;;;;;6.50;2.78;;;21.80;99.90;;;;;;4143664;28;20038;-62
2022/09/05 08:20:54;;;;;;;3.30;2.30;;;21.80;99.90;;;;;;4142517;28;20041;-63
2022/09/05 08:23:16;;;;;;;3.85;1.88;;;21.60;99.90;;;;;;4142368;28;20042;-63
2022/09/05 08:25:30;;;;;;;4.55;2.50;;;21.30;99.90;;;;;;4142667;28;20440;-62
2022/09/05 08:27:49;;;;;;;4.47;2.53;;;21.00;99.90;;;;;;4143148;28;20030;-64
2022/09/05 08:30:06;;;;;;;3.03;2.07;;;20.90;99.90;;;;;;4142464;28;20474;-63
2022/09/05 08:32:19;;;;;;;3.92;2.33;;;21.10;99.90;;;;;;4142998;28;20318;-61
2022/09/05 08:34:36;;;;;;;3.97;2.40;;;20.90;99.90;;;;;;4142468;28;20446;-64
2022/09/05 08:36:44;;;;;;;2.55;2.08;;;20.80;99.90;;;;;;4143606;28;20101;-64
2022/09/05 08:38:46;;;;;;;2.40;2.10;;;20.80;99.90;;;;;;4142963;28;20089;-63
2022/09/05 08:41:25;;;;;;;2.28;1.70;;;20.80;99.90;;;;;;4143625;28;20046;-64
2022/09/05 08:43:46;;;;;;;1.70;1.60;;;20.80;99.90;;;;;;4124568;28;20050;-66
2022/09/05 08:45:58;;;;;;;5.15;2.00;;;20.90;99.90;;;;;;4142424;28;20521;-64
2022/09/05 08:48:21;;;;;;;2.00;1.90;;;21.10;99.90;;;;;;4143065;28;20479;-64
2022/09/05 08:50:49;;;;;;;3.22;2.00;;;21.30;99.90;;;;;;4142383;28;20080;-63
2022/09/05 08:52:55;;;;;;;1.85;1.73;;;21.10;99.90;;;;;;4143343;28;20037;-62
2022/09/05 08:55:12;;;;;;;2.88;2.10;;;21.10;99.90;;;;;;4142433;28;20092;-63
2022/09/05 08:57:37;;;;;;;2.85;1.80;;;20.90;99.90;;;;;;4143504;28;20096;-62
2022/09/05 08:59:52;;;;;;;4.90;2.00;;;20.80;99.90;;;;;;4142114;28;20072;-62
2022/09/05 09:02:02;;;;;;;2.58;2.20;;;20.80;99.90;;;;;;4143414;28;20367;-62
2022/09/05 09:04:23;;;;;;;3.83;2.17;;;20.80;99.90;;;;;;4142291;28;20060;-64
2022/09/05 09:06:43;;;;;;;4.25;1.40;;;20.90;99.90;;;;;;4143462;28;20030;-64
2022/09/05 09:08:55;;;;;;;4.03;1.83;;;20.80;99.90;;;;;;4143680;28;20104;-62
2022/09/05 09:11:18;;;;;;;2.60;1.70;;;20.70;99.90;;;;;;4145981;28;20038;-65
2022/09/05 09:13:51;;;;;;;3.83;1.85;;;20.50;99.90;;;;;;4145213;28;20034;-63
2022/09/05 09:16:17;;;;;;;2.45;1.55;;;20.40;99.90;;;;;;4145195;28;20068;-63
2022/09/05 09:18:20;;;;;;;1.92;1.60;;;20.30;99.90;;;;;;4145636;28;20030;-64
2022/09/05 09:20:36;;;;;;;3.40;1.70;;;20.30;99.90;;;;;;4144081;28;20046;-63
2022/09/05 09:23:02;;;;;;;1.60;1.50;;;20.30;99.90;;;;;;4146022;28;20042;-63
2022/09/05 09:25:15;;;;;;;3.97;1.80;;;20.50;99.90;;;;;;4145139;28;20026;-63
2022/09/05 09:27:19;;;;;;;2.70;1.80;;;20.50;99.90;;;;;;4146088;28;20042;-64
2022/09/05 09:29:22;;;;;;;1.77;1.52;;;20.50;99.90;;;;;;4144994;28;20819;-64
2022/09/05 09:31:44;;;;;;;3.60;1.60;;;20.60;99.90;;;;;;4145959;28;20088;-63
2022/09/05 09:34:09;;;;;;;3.95;1.83;;;20.70;99.90;;;;;;4144884;28;20037;-63
2022/09/05 09:36:48;;;;;;;1.80;1.70;;;20.60;99.90;;;;;;4145660;28;20026;-64
2022/09/05 09:39:16;;;;;;;2.25;1.50;;;20.50;99.90;;;;;;4144649;28;20033;-64
2022/09/05 09:42:11;;;;;;;2.00;1.83;;;20.60;99.90;;;;;;4145894;28;20144;-63
2022/09/05 09:44:50;;;;;;;4.32;2.00;;;20.60;99.90;;;;;;4126941;28;20198;-63
2022/09/05 09:46:52;;;;;;;2.13;1.73;;;20.50;99.90;;;;;;4144639;28;20041;-65
2022/09/05 09:49:06;;;;;;;1.55;1.45;;;20.40;99.90;;;;;;4145246;28;20030;-63
2022/09/05 09:51:59;;;;;;;3.35;1.63;;;20.40;99.90;;;;;;4144668;28;20494;-63
2022/09/05 09:54:12;;;;;;;4.88;1.80;;;20.50;99.90;;;;;;4133240;28;20495;-62
2022/09/05 09:56:46;;;;;;;3.15;1.50;;;20.60;99.90;;;;;;4143263;28;20038;-63
2022/09/05 09:58:59;;;;;;;3.83;1.60;;;20.70;99.90;;;;;;4144821;28;20034;-63
2022/09/05 10:01:13;;;;;;;3.40;1.20;;;20.70;99.90;;;;;;4144810;28;20573;-63
2022/09/05 10:03:37;;;;;;;4.30;1.63;;;20.70;99.90;;;;;;4145072;28;20021;-62
2022/09/05 10:06:03;;;;;;;5.07;2.38;;;20.80;99.90;;;;;;4136963;28;20088;-63
2022/09/05 10:08:46;;;;;;;7.00;1.60;;;20.90;99.90;;;;;;4144510;28;20076;-64
2022/09/05 10:11:10;;;;;;;1.73;1.63;;;21.10;99.90;;;;;;4145777;28;20045;-63
2022/09/05 10:14:16;;;;;;;2.58;1.10;;;21.20;99.90;;;;;;4134107;28;20506;-62
2022/09/05 10:16:52;;;;;;;2.65;1.45;;;21.20;99.90;;;;;;4126645;28;20026;-62
2022/09/05 10:19:08;;;;;;;1.48;1.35;;;21.30;99.90;;;;;;4141355;28;20042;-62
2022/09/05 10:21:28;;;;;;;2.80;1.50;;;21.50;99.90;;;;;;4144177;28;20026;-62
2022/09/05 10:23:40;;;;;;;1.60;1.45;;;21.60;99.90;;;;;;4145124;28;20077;-63
2022/09/05 10:26:02;;;;;;;2.00;1.52;;;21.60;99.90;;;;;;4143911;28;20026;-63
2022/09/05 10:28:15;;;;;;;1.25;1.15;;;21.60;99.90;;;;;;4144751;28;20030;-65
2022/09/05 10:30:39;;;;;;;1.50;1.40;;;21.70;99.90;;;;;;4143974;28;20084;-62
2022/09/05 10:33:02;;;;;;;3.10;1.63;;;21.70;99.90;;;;;;4145145;28;20061;-63
2022/09/05 10:35:29;;;;;;;4.10;1.40;;;21.90;99.90;;;;;;4143742;28;20474;-62
2022/09/05 10:37:57;;;;;;;4.22;1.92;;;22.00;99.90;;;;;;4144542;28;20068;-62
2022/09/05 10:40:04;;;;;;;4.78;1.30;;;22.00;99.90;;;;;;4144112;28;20111;-62
2022/09/05 10:42:38;;;;;;;3.03;1.27;;;22.10;99.90;;;;;;4144362;28;20042;-63
2022/09/05 10:44:48;;;;;;;1.33;1.23;;;22.20;99.90;;;;;;4139049;28;20487;-66
2022/09/05 10:47:04;;;;;;;2.42;1.20;;;22.30;99.90;;;;;;4144319;28;20100;-62
2022/09/05 10:49:10;;;;;;;4.25;1.33;;;22.20;99.90;;;;;;4144363;28;20034;-63
2022/09/05 10:51:21;;;;;;;4.97;1.13;;;21.90;99.90;;;;;;4144048;28;20038;-66
2022/09/05 10:53:31;;;;;;;1.98;1.02;;;21.60;99.90;;;;;;4144168;28;20080;-64
2022/09/05 10:55:46;;;;;;;1.73;1.30;;;21.40;99.90;;;;;;4144003;28;20045;-63
2022/09/05 10:57:50;;;;;;;2.55;2.03;;;21.20;99.90;;;;;;4144219;28;20042;-64
2022/09/05 11:00:10;;;;;;;3.80;1.40;;;21.20;99.90;;;;;;4143876;28;20041;-63
2022/09/05 11:02:19;;;;;;;1.20;0.95;;;21.10;99.90;;;;;;4144169;28;20379;-62
2022/09/05 11:04:46;;;;;;;4.75;1.40;;;21.20;99.90;;;;;;4143823;28;20057;-63
2022/09/05 11:07:17;;;;;;;1.63;1.25;;;21.10;99.90;;;;;;4144202;28;20022;-62
2022/09/05 11:09:42;;;;;;;5.00;1.80;;;21.00;99.90;;;;;;4124964;28;20039;-62
2022/09/05 11:11:52;;;;;;;7.55;1.63;;;21.00;99.90;;;;;;4143464;28;20037;-69
2022/09/05 11:13:55;;;;;;;1.35;1.23;;;21.10;99.90;;;;;;4143367;28;20018;-63
2022/09/05 11:15:59;;;;;;;3.70;0.90;;;21.10;99.90;;;;;;4144786;28;20087;-63
2022/09/05 11:18:04;;;;;;;1.48;0.90;;;21.10;99.90;;;;;;4143311;28;20453;-65
2022/09/05 11:20:42;;;;;;;3.25;0.88;;;21.10;99.90;;;;;;4144176;28;20033;-64
2022/09/05 11:22:46;;;;;;;1.52;1.00;;;21.30;99.90;;;;;;4143199;28;20112;-65
2022/09/05 11:25:01;;;;;;;1.60;0.85;;;21.50;99.90;;;;;;4144363;28;20116;-63
2022/09/05 11:27:15;;;;;;;1.08;1.05;;;21.60;99.90;;;;;;4143451;28;20030;-64
2022/09/05 11:29:23;;;;;;;2.22;0.70;;;21.60;99.90;;;;;;4143677;28;20482;-64
2022/09/05 11:31:48;;;;;;;0.98;0.90;;;21.80;99.90;;;;;;4142668;28;20654;-63
2022/09/05 11:34:09;;;;;;;1.35;1.00;;;21.90;99.90;;;;;;4139466;28;20048;-64
2022/09/05 11:36:28;;;;;;;4.45;0.90;;;22.10;99.90;;;;;;4142897;28;20046;-63
2022/09/05 11:38:37;;;;;;;2.35;0.90;;;22.20;99.90;;;;;;4144013;28;20494;-63
2022/09/05 11:40:38;;;;;;;6.35;1.13;;;22.30;99.90;;;;;;4143683;28;20398;-63
2022/09/05 11:43:01;;;;;;;7.88;1.80;;;22.50;99.90;;;;;;4144049;28;20058;-68
2022/09/05 11:45:20;;;;;;;14.63;1.88;;;22.70;99.90;;;;;;4143546;28;20062;-66
2022/09/05 11:47:24;;;;;;;2.38;1.42;;;22.90;99.90;;;;;;4143528;28;20033;-63
2022/09/05 11:49:49;;;;;;;5.38;1.10;;;23.10;99.90;;;;;;4143395;28;20434;-64
2022/09/05 11:52:26;;;;;;;1.25;0.90;;;22.90;99.90;;;;;;4143189;28;20072;-62
2022/09/05 11:54:42;;;;;;;1.35;0.85;;;22.80;99.90;;;;;;4143710;28;20034;-64
2022/09/05 11:56:49;;;;;;;1.65;0.90;;;22.90;99.90;;;;;;4143048;28;20038;-63
2022/09/05 11:59:03;;;;;;;2.60;0.98;;;23.00;99.90;;;;;;4143483;28;20089;-65